sensor_id;sensor_type;location;lat;lon;timestamp;pressure;altitude;pressure_sealevel;temperature;humidity
57290;BME280;43523;53.022;-1.178;2022-09-09T00:00:21;99587.85;;;11.66;100.00
57290;BME280;43523;53.022;-1.178;2022-09-09T00:01:31;99590.09;;;11.57;100.00
57290;BME280;43523;53.022;-1.178;2022-09-09T00:02:35;99592.66;;;11.72;100.00
57290;BME280;43523;53.022;-1.178;2022-09-09T00:03:42;99594.08;;;11.84;100.00
57290;BME280;43523;53.022;-1.178;2022-09-09T00:04:52;99594.89;;;11.60;100.00
57290;BME280;43523;53.022;-1.178;2022-09-09T00:06:02;99598.34;;;11.86;100.00
57290;BME280;43523;53.022;-1.178;2022-09-09T00:07:14;99595.84;;;11.96;100.00
57290;BME280;43523;53.022;-1.178;2022-09-09T00:08:20;99598.82;;;11.81;100.00
57290;BME280;43523;53.022;-1.178;2022-09-09T00:09:28;99597.55;;;11.75;100.00
57290;BME280;43523;53.022;-1.178;2022-09-09T00:10:32;99595.77;;;11.97;100.00
57290;BME280;43523;53.022;-1.178;2022-09-09T00:11:42;99596.29;;;11.79;100.00
57290;BME280;43523;53.022;-1.178;2022-09-09T00:12:52;99595.52;;;11.70;100.00
57290;BME280;43523;53.022;-1.178;2022-09-09T00:13:58;99597.63;;;11.75;100.00
57290;BME280;43523;53.022;-1.178;2022-09-09T00:15:07;99599.61;;;11.71;100.00
57290;BME280;43523;53.022;-1.178;2022-09-09T00:16:19;99600.94;;;11.41;100.00
57290;BME280;43523;53.022;-1.178;2022-09-09T00:17:31;99598.60;;;11.40;100.00
57290;BME280;43523;53.022;-1.178;2022-09-09T00:18:41;99599.81;;;11.71;100.00
57290;BME280;43523;53.022;-1.178;2022-09-09T00:19:47;99599.78;;;11.37;100.00
57290;BME280;43523;53.022;-1.178;2022-09-09T00:20:58;99599.13;;;11.72;100.00
57290;BME280;43523;53.022;-1.178;2022-09-09T00:22:13;99600.14;;;11.89;100.00
57290;BME280;43523;53.022;-1.178;2022-09-09T00:23:22;99599.16;;;12.14;100.00
57290;BME280;43523;53.022;-1.178;2022-09-09T00:24:29;99598.31;;;12.41;100.00
57290;BME280;43523;53.022;-1.178;2022-09-09T00:25:40;99599.27;;;12.00;100.00
57290;BME280;43523;53.022;-1.178;2022-09-09T00:26:49;99600.46;;;11.80;100.00
57290;BME280;43523;53.022;-1.178;2022-09-09T00:27:54;99600.29;;;12.18;100.00
57290;BME280;43523;53.022;-1.178;2022-09-09T00:29:03;99604.37;;;12.18;100.00
57290;BME280;43523;53.022;-1.178;2022-09-09T00:30:15;99604.56;;;12.24;100.00
57290;BME280;43523;53.022;-1.178;2022-09-09T00:31:22;99602.19;;;12.33;100.00
57290;BME280;43523;53.022;-1.178;2022-09-09T00:32:29;99607.09;;;12.47;100.00
57290;BME280;43523;53.022;-1.178;2022-09-09T00:33:32;99603.23;;;12.38;100.00
57290;BME280;43523;53.022;-1.178;2022-09-09T00:34:34;99605.11;;;12.33;100.00
57290;BME280;43523;53.022;-1.178;2022-09-09T00:35:40;99606.35;;;12.10;100.00
57290;BME280;43523;53.022;-1.178;2022-09-09T00:36:43;99606.37;;;12.07;100.00
57290;BME280;43523;53.022;-1.178;2022-09-09T00:37:49;99606.08;;;12.15;100.00
57290;BME280;43523;53.022;-1.178;2022-09-09T00:38:56;99601.74;;;12.44;100.00
57290;BME280;43523;53.022;-1.178;2022-09-09T00:40:04;99599.34;;;12.23;100.00
57290;BME280;43523;53.022;-1.178;2022-09-09T00:41:14;99600.76;;;12.45;100.00
57290;BME280;43523;53.022;-1.178;2022-09-09T00:42:24;99603.36;;;12.26;100.00
57290;BME280;43523;53.022;-1.178;2022-09-09T00:43:29;99604.84;;;12.43;100.00
57290;BME280;43523;53.022;-1.178;2022-09-09T00:44:35;99606.61;;;12.13;100.00
57290;BME280;43523;53.022;-1.178;2022-09-09T00:45:57;99603.81;;;12.36;100.00
57290;BME280;43523;53.022;-1.178;2022-09-09T00:47:15;99600.63;;;12.76;100.00
57290;BME280;43523;53.022;-1.178;2022-09-09T00:48:28;99602.21;;;12.58;100.00
57290;BME280;43523;53.022;-1.178;2022-09-09T00:49:42;99602.39;;;12.41;100.00
57290;BME280;43523;53.022;-1.178;2022-09-09T00:50:52;99602.03;;;12.44;100.00
57290;BME280;43523;53.022;-1.178;2022-09-09T00:52:02;99603.56;;;12.42;100.00
57290;BME280;43523;53.022;-1.178;2022-09-09T00:53:21;99601.85;;;12.54;100.00
57290;BME280;43523;53.022;-1.178;2022-09-09T00:54:36;99603.40;;;12.61;100.00
57290;BME280;43523;53.022;-1.178;2022-09-09T00:55:44;99603.73;;;12.35;100.00
57290;BME280;43523;53.022;-1.178;2022-09-09T00:56:59;99604.05;;;12.60;100.00
57290;BME280;43523;53.022;-1.178;2022-09-09T00:58:07;99600.89;;;12.69;100.00
57290;BME280;43523;53.022;-1.178;2022-09-09T00:59:25;99603.09;;;12.57;100.00
57290;BME280;43523;53.022;-1.178;2022-09-09T01:00:33;99604.33;;;12.11;100.00
57290;BME280;43523;53.022;-1.178;2022-09-09T01:01:37;99603.09;;;12.61;100.00
57290;BME280;43523;53.022;-1.178;2022-09-09T01:02:49;99603.40;;;12.62;100.00
57290;BME280;43523;53.022;-1.178;2022-09-09T01:03:55;99603.63;;;12.94;100.00
57290;BME280;43523;53.022;-1.178;2022-09-09T01:05:04;99604.83;;;12.77;100.00
57290;BME280;43523;53.022;-1.178;2022-09-09T01:06:16;99605.31;;;12.76;100.00
57290;BME280;43523;53.022;-1.178;2022-09-09T01:07:22;99601.28;;;12.82;100.00
57290;BME280;43523;53.022;-1.178;2022-09-09T01:08:36;99603.45;;;12.06;100.00
57290;BME280;43523;53.022;-1.178;2022-09-09T01:09:52;99601.50;;;12.23;100.00
57290;BME280;43523;53.022;-1.178;2022-09-09T01:10:56;99602.47;;;12.60;100.00
57290;BME280;43523;53.022;-1.178;2022-09-09T01:12:06;99599.91;;;12.35;100.00
57290;BME280;43523;53.022;-1.178;2022-09-09T01:13:22;99598.85;;;12.39;100.00
57290;BME280;43523;53.022;-1.178;2022-09-09T01:14:40;99599.84;;;12.42;100.00
57290;BME280;43523;53.022;-1.178;2022-09-09T01:15:44;99598.45;;;12.52;100.00
57290;BME280;43523;53.022;-1.178;2022-09-09T01:16:48;99596.63;;;12.54;100.00
57290;BME280;43523;53.022;-1.178;2022-09-09T01:17:56;99595.31;;;12.70;100.00
57290;BME280;43523;53.022;-1.178;2022-09-09T01:19:01;99594.39;;;12.60;100.00
57290;BME280;43523;53.022;-1.178;2022-09-09T01:20:10;99592.70;;;12.62;100.00
57290;BME280;43523;53.022;-1.178;2022-09-09T01:21:20;99592.67;;;12.13;100.00
57290;BME280;43523;53.022;-1.178;2022-09-09T01:22:33;99590.91;;;12.85;100.00
57290;BME280;43523;53.022;-1.178;2022-09-09T01:23:57;99589.48;;;12.68;100.00
57290;BME280;43523;53.022;-1.178;2022-09-09T01:25:29;99591.33;;;12.29;100.00
57290;BME280;43523;53.022;-1.178;2022-09-09T01:26:34;99591.17;;;12.38;100.00
57290;BME280;43523;53.022;-1.178;2022-09-09T01:27:37;99595.71;;;12.43;100.00
57290;BME280;43523;53.022;-1.178;2022-09-09T01:28:43;99597.21;;;12.53;100.00
57290;BME280;43523;53.022;-1.178;2022-09-09T01:29:47;99598.37;;;12.45;100.00
57290;BME280;43523;53.022;-1.178;2022-09-09T01:30:50;99598.46;;;12.69;100.00
57290;BME280;43523;53.022;-1.178;2022-09-09T01:31:54;99597.19;;;13.03;100.00
57290;BME280;43523;53.022;-1.178;2022-09-09T01:32:58;99596.95;;;13.06;100.00
57290;BME280;43523;53.022;-1.178;2022-09-09T01:34:01;99598.75;;;13.07;100.00
57290;BME280;43523;53.022;-1.178;2022-09-09T01:35:04;99597.46;;;13.25;100.00
57290;BME280;43523;53.022;-1.178;2022-09-09T01:36:14;99598.81;;;12.93;100.00
57290;BME280;43523;53.022;-1.178;2022-09-09T01:37:17;99597.92;;;13.33;100.00
57290;BME280;43523;53.022;-1.178;2022-09-09T01:38:20;99599.67;;;13.24;100.00
57290;BME280;43523;53.022;-1.178;2022-09-09T01:39:23;99597.61;;;13.20;100.00
57290;BME280;43523;53.022;-1.178;2022-09-09T01:40:26;99597.20;;;13.15;100.00
57290;BME280;43523;53.022;-1.178;2022-09-09T01:41:28;99597.18;;;13.24;100.00
57290;BME280;43523;53.022;-1.178;2022-09-09T01:42:31;99597.02;;;13.27;100.00
57290;BME280;43523;53.022;-1.178;2022-09-09T01:43:33;99596.89;;;13.35;100.00
57290;BME280;43523;53.022;-1.178;2022-09-09T01:44:36;99591.84;;;13.28;100.00
57290;BME280;43523;53.022;-1.178;2022-09-09T01:45:41;99593.43;;;13.38;100.00
57290;BME280;43523;53.022;-1.178;2022-09-09T01:46:45;99592.10;;;12.82;100.00
57290;BME280;43523;53.022;-1.178;2022-09-09T01:47:47;99593.07;;;12.19;100.00
57290;BME280;43523;53.022;-1.178;2022-09-09T01:48:52;99595.35;;;11.68;100.00
57290;BME280;43523;53.022;-1.178;2022-09-09T01:49:55;99593.68;;;10.85;100.00
57290;BME280;43523;53.022;-1.178;2022-09-09T01:50:57;99595.46;;;10.91;100.00
57290;BME280;43523;53.022;-1.178;2022-09-09T01:52:00;99594.84;;;10.60;100.00
57290;BME280;43523;53.022;-1.178;2022-09-09T01:53:04;99593.63;;;11.07;100.00
57290;BME280;43523;53.022;-1.178;2022-09-09T01:54:07;99595.45;;;11.32;100.00
57290;BME280;43523;53.022;-1.178;2022-09-09T01:55:10;99594.84;;;11.55;100.00
57290;BME280;43523;53.022;-1.178;2022-09-09T01:56:21;99597.95;;;11.75;100.00
57290;BME280;43523;53.022;-1.178;2022-09-09T01:57:33;99595.35;;;11.40;100.00
57290;BME280;43523;53.022;-1.178;2022-09-09T01:58:49;99595.36;;;11.34;100.00
57290;BME280;43523;53.022;-1.178;2022-09-09T02:00:03;99597.38;;;10.65;100.00
57290;BME280;43523;53.022;-1.178;2022-09-09T02:01:11;99601.48;;;10.78;100.00
57290;BME280;43523;53.022;-1.178;2022-09-09T02:02:18;99598.07;;;11.39;100.00
57290;BME280;43523;53.022;-1.178;2022-09-09T02:03:25;99597.01;;;11.81;100.00
57290;BME280;43523;53.022;-1.178;2022-09-09T02:04:36;99597.22;;;11.65;100.00
57290;BME280;43523;53.022;-1.178;2022-09-09T02:05:43;99597.57;;;11.88;100.00
57290;BME280;43523;53.022;-1.178;2022-09-09T02:06:48;99597.66;;;11.04;100.00
57290;BME280;43523;53.022;-1.178;2022-09-09T02:08:00;99599.04;;;10.87;100.00
57290;BME280;43523;53.022;-1.178;2022-09-09T02:09:05;99600.87;;;10.40;100.00
57290;BME280;43523;53.022;-1.178;2022-09-09T02:10:14;99598.88;;;10.26;100.00
57290;BME280;43523;53.022;-1.178;2022-09-09T02:11:19;99598.78;;;11.10;100.00
57290;BME280;43523;53.022;-1.178;2022-09-09T02:12:24;99594.42;;;11.75;100.00
57290;BME280;43523;53.022;-1.178;2022-09-09T02:13:29;99595.22;;;11.89;100.00
57290;BME280;43523;53.022;-1.178;2022-09-09T02:14:37;99591.59;;;12.15;100.00
57290;BME280;43523;53.022;-1.178;2022-09-09T02:15:46;99591.03;;;11.08;100.00
57290;BME280;43523;53.022;-1.178;2022-09-09T02:16:54;99589.98;;;10.63;100.00
57290;BME280;43523;53.022;-1.178;2022-09-09T02:17:58;99586.39;;;11.61;100.00
57290;BME280;43523;53.022;-1.178;2022-09-09T02:19:07;99586.31;;;12.04;100.00
57290;BME280;43523;53.022;-1.178;2022-09-09T02:20:14;99585.06;;;12.02;100.00
57290;BME280;43523;53.022;-1.178;2022-09-09T02:21:17;99582.88;;;12.17;100.00
57290;BME280;43523;53.022;-1.178;2022-09-09T02:22:22;99585.58;;;11.90;100.00
57290;BME280;43523;53.022;-1.178;2022-09-09T02:23:25;99583.27;;;12.44;100.00
57290;BME280;43523;53.022;-1.178;2022-09-09T02:24:31;99582.74;;;11.89;100.00
57290;BME280;43523;53.022;-1.178;2022-09-09T02:25:36;99579.48;;;11.37;100.00
57290;BME280;43523;53.022;-1.178;2022-09-09T02:26:40;99579.84;;;10.72;100.00
57290;BME280;43523;53.022;-1.178;2022-09-09T02:27:44;99581.92;;;10.68;100.00
57290;BME280;43523;53.022;-1.178;2022-09-09T02:28:49;99580.20;;;10.95;100.00
57290;BME280;43523;53.022;-1.178;2022-09-09T02:29:53;99580.07;;;10.68;100.00
57290;BME280;43523;53.022;-1.178;2022-09-09T02:30:57;99580.17;;;10.84;100.00
57290;BME280;43523;53.022;-1.178;2022-09-09T02:32:01;99583.56;;;11.02;100.00
57290;BME280;43523;53.022;-1.178;2022-09-09T02:33:07;99582.88;;;10.20;100.00
57290;BME280;43523;53.022;-1.178;2022-09-09T02:34:12;99582.89;;;10.55;100.00
57290;BME280;43523;53.022;-1.178;2022-09-09T02:35:19;99583.78;;;10.22;100.00
57290;BME280;43523;53.022;-1.178;2022-09-09T02:36:24;99579.65;;;11.05;100.00
57290;BME280;43523;53.022;-1.178;2022-09-09T02:37:34;99582.21;;;11.50;100.00
57290;BME280;43523;53.022;-1.178;2022-09-09T02:38:42;99584.22;;;11.86;100.00
57290;BME280;43523;53.022;-1.178;2022-09-09T02:39:47;99585.56;;;11.97;100.00
57290;BME280;43523;53.022;-1.178;2022-09-09T02:40:49;99584.26;;;12.13;100.00
57290;BME280;43523;53.022;-1.178;2022-09-09T02:41:52;99585.87;;;12.45;100.00
57290;BME280;43523;53.022;-1.178;2022-09-09T02:42:54;99587.06;;;12.47;100.00
57290;BME280;43523;53.022;-1.178;2022-09-09T02:43:57;99585.94;;;11.97;100.00
57290;BME280;43523;53.022;-1.178;2022-09-09T02:44:59;99583.76;;;11.51;100.00
57290;BME280;43523;53.022;-1.178;2022-09-09T02:46:10;99585.89;;;11.49;100.00
57290;BME280;43523;53.022;-1.178;2022-09-09T02:47:26;99583.81;;;11.45;100.00
57290;BME280;43523;53.022;-1.178;2022-09-09T02:48:37;99584.51;;;11.44;100.00
57290;BME280;43523;53.022;-1.178;2022-09-09T02:49:52;99581.03;;;11.20;100.00
57290;BME280;43523;53.022;-1.178;2022-09-09T02:51:05;99584.21;;;10.60;100.00
57290;BME280;43523;53.022;-1.178;2022-09-09T02:52:14;99583.82;;;10.97;100.00
57290;BME280;43523;53.022;-1.178;2022-09-09T02:53:18;99582.05;;;11.40;100.00
57290;BME280;43523;53.022;-1.178;2022-09-09T02:54:27;99582.12;;;10.60;100.00
57290;BME280;43523;53.022;-1.178;2022-09-09T02:55:38;99580.23;;;10.19;100.00
57290;BME280;43523;53.022;-1.178;2022-09-09T02:56:45;99577.98;;;11.13;100.00
57290;BME280;43523;53.022;-1.178;2022-09-09T02:57:50;99577.12;;;11.21;100.00
57290;BME280;43523;53.022;-1.178;2022-09-09T02:58:54;99577.48;;;11.43;100.00
57290;BME280;43523;53.022;-1.178;2022-09-09T02:59:58;99572.67;;;11.67;100.00
57290;BME280;43523;53.022;-1.178;2022-09-09T03:01:01;99572.93;;;11.78;100.00
57290;BME280;43523;53.022;-1.178;2022-09-09T03:02:03;99575.91;;;10.64;100.00
57290;BME280;43523;53.022;-1.178;2022-09-09T03:03:06;99574.70;;;9.98;100.00
57290;BME280;43523;53.022;-1.178;2022-09-09T03:04:09;99574.78;;;10.15;100.00
57290;BME280;43523;53.022;-1.178;2022-09-09T03:05:13;99573.59;;;10.64;100.00
57290;BME280;43523;53.022;-1.178;2022-09-09T03:06:14;99574.85;;;10.08;100.00
57290;BME280;43523;53.022;-1.178;2022-09-09T03:07:17;99577.35;;;9.84;100.00
57290;BME280;43523;53.022;-1.178;2022-09-09T03:08:19;99576.70;;;10.21;100.00
57290;BME280;43523;53.022;-1.178;2022-09-09T03:09:21;99575.47;;;10.40;100.00
57290;BME280;43523;53.022;-1.178;2022-09-09T03:10:24;99576.14;;;10.82;100.00
57290;BME280;43523;53.022;-1.178;2022-09-09T03:11:26;99578.75;;;11.16;100.00
57290;BME280;43523;53.022;-1.178;2022-09-09T03:12:29;99577.07;;;10.38;100.00
57290;BME280;43523;53.022;-1.178;2022-09-09T03:13:31;99578.04;;;10.45;100.00
57290;BME280;43523;53.022;-1.178;2022-09-09T03:14:33;99579.12;;;10.57;100.00
57290;BME280;43523;53.022;-1.178;2022-09-09T03:15:36;99578.73;;;10.75;100.00
57290;BME280;43523;53.022;-1.178;2022-09-09T03:16:38;99579.22;;;10.85;100.00
57290;BME280;43523;53.022;-1.178;2022-09-09T03:17:41;99577.90;;;10.44;100.00
57290;BME280;43523;53.022;-1.178;2022-09-09T03:18:44;99579.67;;;10.42;100.00
57290;BME280;43523;53.022;-1.178;2022-09-09T03:19:46;99577.79;;;10.69;100.00
57290;BME280;43523;53.022;-1.178;2022-09-09T03:20:48;99576.95;;;10.23;100.00
57290;BME280;43523;53.022;-1.178;2022-09-09T03:21:51;99575.92;;;9.90;100.00
57290;BME280;43523;53.022;-1.178;2022-09-09T03:22:54;99576.54;;;9.95;100.00
57290;BME280;43523;53.022;-1.178;2022-09-09T03:23:56;99576.01;;;10.02;100.00
57290;BME280;43523;53.022;-1.178;2022-09-09T03:24:59;99578.12;;;10.35;100.00
57290;BME280;43523;53.022;-1.178;2022-09-09T03:26:01;99577.01;;;10.42;100.00
57290;BME280;43523;53.022;-1.178;2022-09-09T03:27:04;99575.28;;;10.56;100.00
57290;BME280;43523;53.022;-1.178;2022-09-09T03:28:05;99574.95;;;10.91;100.00
57290;BME280;43523;53.022;-1.178;2022-09-09T03:29:08;99577.30;;;10.66;100.00
57290;BME280;43523;53.022;-1.178;2022-09-09T03:30:14;99579.20;;;10.89;100.00
57290;BME280;43523;53.022;-1.178;2022-09-09T03:31:16;99581.42;;;10.66;100.00
57290;BME280;43523;53.022;-1.178;2022-09-09T03:32:20;99583.33;;;10.25;100.00
57290;BME280;43523;53.022;-1.178;2022-09-09T03:33:22;99585.77;;;10.42;100.00
57290;BME280;43523;53.022;-1.178;2022-09-09T03:34:24;99585.28;;;10.09;100.00
57290;BME280;43523;53.022;-1.178;2022-09-09T03:35:27;99589.04;;;10.19;100.00
57290;BME280;43523;53.022;-1.178;2022-09-09T03:36:30;99590.72;;;10.33;100.00
57290;BME280;43523;53.022;-1.178;2022-09-09T03:37:32;99591.69;;;10.77;100.00
57290;BME280;43523;53.022;-1.178;2022-09-09T03:38:34;99593.79;;;10.69;100.00
57290;BME280;43523;53.022;-1.178;2022-09-09T03:39:36;99593.26;;;11.00;100.00
57290;BME280;43523;53.022;-1.178;2022-09-09T03:40:38;99593.78;;;11.18;100.00
57290;BME280;43523;53.022;-1.178;2022-09-09T03:41:41;99594.00;;;11.33;100.00
57290;BME280;43523;53.022;-1.178;2022-09-09T03:42:44;99592.25;;;11.47;100.00
57290;BME280;43523;53.022;-1.178;2022-09-09T03:43:46;99591.88;;;10.91;100.00
57290;BME280;43523;53.022;-1.178;2022-09-09T03:44:48;99593.42;;;10.65;100.00
57290;BME280;43523;53.022;-1.178;2022-09-09T03:45:51;99594.90;;;11.02;100.00
57290;BME280;43523;53.022;-1.178;2022-09-09T03:46:53;99596.98;;;10.78;100.00
57290;BME280;43523;53.022;-1.178;2022-09-09T03:47:55;99595.19;;;10.66;100.00
57290;BME280;43523;53.022;-1.178;2022-09-09T03:48:57;99595.70;;;11.07;100.00
57290;BME280;43523;53.022;-1.178;2022-09-09T03:49:59;99594.71;;;11.05;100.00
57290;BME280;43523;53.022;-1.178;2022-09-09T03:51:02;99597.07;;;11.18;100.00
57290;BME280;43523;53.022;-1.178;2022-09-09T03:52:04;99594.56;;;11.95;100.00
57290;BME280;43523;53.022;-1.178;2022-09-09T03:53:07;99595.27;;;11.55;100.00
57290;BME280;43523;53.022;-1.178;2022-09-09T03:54:09;99595.16;;;12.04;100.00
57290;BME280;43523;53.022;-1.178;2022-09-09T03:55:13;99595.18;;;11.94;100.00
57290;BME280;43523;53.022;-1.178;2022-09-09T03:56:15;99598.44;;;11.32;100.00
57290;BME280;43523;53.022;-1.178;2022-09-09T03:57:17;99600.02;;;11.35;100.00
57290;BME280;43523;53.022;-1.178;2022-09-09T03:58:19;99598.80;;;11.04;100.00
57290;BME280;43523;53.022;-1.178;2022-09-09T03:59:22;99597.28;;;11.30;100.00
57290;BME280;43523;53.022;-1.178;2022-09-09T04:00:24;99599.27;;;11.63;100.00
57290;BME280;43523;53.022;-1.178;2022-09-09T04:01:27;99603.47;;;11.99;100.00
57290;BME280;43523;53.022;-1.178;2022-09-09T04:02:30;99604.06;;;12.08;100.00
57290;BME280;43523;53.022;-1.178;2022-09-09T04:03:33;99601.84;;;11.77;100.00
57290;BME280;43523;53.022;-1.178;2022-09-09T04:04:35;99604.58;;;12.18;100.00
57290;BME280;43523;53.022;-1.178;2022-09-09T04:05:39;99606.03;;;12.40;100.00
57290;BME280;43523;53.022;-1.178;2022-09-09T04:06:41;99606.40;;;12.08;100.00
57290;BME280;43523;53.022;-1.178;2022-09-09T04:07:44;99607.57;;;12.04;100.00
57290;BME280;43523;53.022;-1.178;2022-09-09T04:08:47;99607.49;;;11.64;100.00
57290;BME280;43523;53.022;-1.178;2022-09-09T04:09:49;99608.48;;;11.94;100.00
57290;BME280;43523;53.022;-1.178;2022-09-09T04:10:52;99608.72;;;11.84;100.00
57290;BME280;43523;53.022;-1.178;2022-09-09T04:11:55;99607.13;;;11.38;100.00
57290;BME280;43523;53.022;-1.178;2022-09-09T04:12:57;99610.52;;;12.23;100.00
57290;BME280;43523;53.022;-1.178;2022-09-09T04:13:59;99609.09;;;12.54;100.00
57290;BME280;43523;53.022;-1.178;2022-09-09T04:15:02;99608.75;;;12.62;100.00
57290;BME280;43523;53.022;-1.178;2022-09-09T04:16:05;99609.62;;;12.75;100.00
57290;BME280;43523;53.022;-1.178;2022-09-09T04:17:07;99610.80;;;12.63;100.00
57290;BME280;43523;53.022;-1.178;2022-09-09T04:18:17;99611.09;;;12.89;100.00
57290;BME280;43523;53.022;-1.178;2022-09-09T04:19:19;99608.79;;;12.78;100.00
57290;BME280;43523;53.022;-1.178;2022-09-09T04:20:21;99610.04;;;13.26;100.00
57290;BME280;43523;53.022;-1.178;2022-09-09T04:21:23;99612.78;;;12.88;100.00
57290;BME280;43523;53.022;-1.178;2022-09-09T04:22:25;99612.18;;;13.09;100.00
57290;BME280;43523;53.022;-1.178;2022-09-09T04:23:28;99612.28;;;13.10;100.00
57290;BME280;43523;53.022;-1.178;2022-09-09T04:24:31;99613.07;;;13.33;100.00
57290;BME280;43523;53.022;-1.178;2022-09-09T04:25:34;99612.45;;;13.34;100.00
57290;BME280;43523;53.022;-1.178;2022-09-09T04:26:36;99612.86;;;13.73;100.00
57290;BME280;43523;53.022;-1.178;2022-09-09T04:27:38;99612.45;;;13.23;100.00
57290;BME280;43523;53.022;-1.178;2022-09-09T04:28:41;99610.76;;;12.58;100.00
57290;BME280;43523;53.022;-1.178;2022-09-09T04:29:43;99613.13;;;13.10;100.00
57290;BME280;43523;53.022;-1.178;2022-09-09T04:30:45;99613.93;;;11.76;100.00
57290;BME280;43523;53.022;-1.178;2022-09-09T04:31:48;99613.70;;;11.30;100.00
57290;BME280;43523;53.022;-1.178;2022-09-09T04:32:50;99613.90;;;11.84;100.00
57290;BME280;43523;53.022;-1.178;2022-09-09T04:33:53;99613.85;;;11.15;100.00
57290;BME280;43523;53.022;-1.178;2022-09-09T04:34:55;99613.44;;;10.60;100.00
57290;BME280;43523;53.022;-1.178;2022-09-09T04:35:58;99614.46;;;11.05;100.00
57290;BME280;43523;53.022;-1.178;2022-09-09T04:36:59;99616.51;;;10.35;100.00
57290;BME280;43523;53.022;-1.178;2022-09-09T04:38:03;99614.72;;;11.25;100.00
57290;BME280;43523;53.022;-1.178;2022-09-09T04:39:07;99616.52;;;10.13;100.00
57290;BME280;43523;53.022;-1.178;2022-09-09T04:40:09;99618.33;;;10.80;100.00
57290;BME280;43523;53.022;-1.178;2022-09-09T04:41:13;99619.02;;;10.66;100.00
57290;BME280;43523;53.022;-1.178;2022-09-09T04:42:15;99619.12;;;11.05;100.00
57290;BME280;43523;53.022;-1.178;2022-09-09T04:43:18;99621.95;;;11.79;100.00
57290;BME280;43523;53.022;-1.178;2022-09-09T04:44:20;99620.14;;;11.73;100.00
57290;BME280;43523;53.022;-1.178;2022-09-09T04:45:22;99621.48;;;12.02;100.00
57290;BME280;43523;53.022;-1.178;2022-09-09T04:46:24;99623.09;;;12.07;100.00
57290;BME280;43523;53.022;-1.178;2022-09-09T04:47:27;99626.47;;;12.38;100.00
57290;BME280;43523;53.022;-1.178;2022-09-09T04:48:30;99623.97;;;11.77;100.00
57290;BME280;43523;53.022;-1.178;2022-09-09T04:49:33;99625.84;;;12.27;100.00
57290;BME280;43523;53.022;-1.178;2022-09-09T04:50:35;99628.30;;;12.49;100.00
57290;BME280;43523;53.022;-1.178;2022-09-09T04:51:38;99626.27;;;12.47;100.00
57290;BME280;43523;53.022;-1.178;2022-09-09T04:52:41;99627.45;;;12.52;100.00
57290;BME280;43523;53.022;-1.178;2022-09-09T04:53:44;99628.66;;;11.31;100.00
57290;BME280;43523;53.022;-1.178;2022-09-09T04:54:47;99629.19;;;11.53;100.00
57290;BME280;43523;53.022;-1.178;2022-09-09T04:55:49;99626.94;;;11.01;100.00
57290;BME280;43523;53.022;-1.178;2022-09-09T04:56:52;99627.31;;;11.75;100.00
57290;BME280;43523;53.022;-1.178;2022-09-09T04:57:54;99626.19;;;12.06;100.00
57290;BME280;43523;53.022;-1.178;2022-09-09T04:58:56;99625.56;;;11.61;100.00
57290;BME280;43523;53.022;-1.178;2022-09-09T04:59:59;99627.44;;;11.75;100.00
57290;BME280;43523;53.022;-1.178;2022-09-09T05:01:04;99629.32;;;12.08;100.00
57290;BME280;43523;53.022;-1.178;2022-09-09T05:02:07;99629.66;;;11.86;100.00
57290;BME280;43523;53.022;-1.178;2022-09-09T05:03:09;99633.85;;;10.93;100.00
57290;BME280;43523;53.022;-1.178;2022-09-09T05:04:12;99636.47;;;11.10;100.00
57290;BME280;43523;53.022;-1.178;2022-09-09T05:05:15;99637.07;;;10.04;100.00
57290;BME280;43523;53.022;-1.178;2022-09-09T05:06:18;99639.90;;;10.43;100.00
57290;BME280;43523;53.022;-1.178;2022-09-09T05:07:21;99641.03;;;10.28;100.00
57290;BME280;43523;53.022;-1.178;2022-09-09T05:08:23;99640.82;;;10.36;100.00
57290;BME280;43523;53.022;-1.178;2022-09-09T05:09:26;99642.17;;;10.26;100.00
57290;BME280;43523;53.022;-1.178;2022-09-09T05:10:29;99645.30;;;10.12;100.00
57290;BME280;43523;53.022;-1.178;2022-09-09T05:11:32;99643.92;;;10.39;100.00
57290;BME280;43523;53.022;-1.178;2022-09-09T05:12:35;99644.82;;;10.61;100.00
57290;BME280;43523;53.022;-1.178;2022-09-09T05:13:38;99646.85;;;10.27;100.00
57290;BME280;43523;53.022;-1.178;2022-09-09T05:14:40;99644.13;;;10.18;100.00
57290;BME280;43523;53.022;-1.178;2022-09-09T05:15:42;99646.75;;;10.47;100.00
57290;BME280;43523;53.022;-1.178;2022-09-09T05:16:53;99645.70;;;10.87;100.00
57290;BME280;43523;53.022;-1.178;2022-09-09T05:17:57;99645.48;;;10.80;100.00
57290;BME280;43523;53.022;-1.178;2022-09-09T05:18:59;99645.65;;;10.65;100.00
57290;BME280;43523;53.022;-1.178;2022-09-09T05:20:02;99645.69;;;10.24;100.00
57290;BME280;43523;53.022;-1.178;2022-09-09T05:21:17;99648.27;;;10.53;100.00
57290;BME280;43523;53.022;-1.178;2022-09-09T05:22:32;99649.56;;;10.62;100.00
57290;BME280;43523;53.022;-1.178;2022-09-09T05:23:39;99649.30;;;10.86;100.00
57290;BME280;43523;53.022;-1.178;2022-09-09T05:24:42;99651.03;;;10.61;100.00
57290;BME280;43523;53.022;-1.178;2022-09-09T05:25:52;99648.94;;;11.33;100.00
57290;BME280;43523;53.022;-1.178;2022-09-09T05:26:55;99646.73;;;11.64;100.00
57290;BME280;43523;53.022;-1.178;2022-09-09T05:27:58;99644.69;;;12.11;100.00
57290;BME280;43523;53.022;-1.178;2022-09-09T05:29:00;99647.47;;;11.90;100.00
57290;BME280;43523;53.022;-1.178;2022-09-09T05:30:03;99646.29;;;12.28;100.00
57290;BME280;43523;53.022;-1.178;2022-09-09T05:31:07;99647.67;;;12.62;100.00
57290;BME280;43523;53.022;-1.178;2022-09-09T05:32:10;99646.78;;;12.93;100.00
57290;BME280;43523;53.022;-1.178;2022-09-09T05:33:13;99646.80;;;12.63;100.00
57290;BME280;43523;53.022;-1.178;2022-09-09T05:34:15;99645.44;;;12.89;100.00
57290;BME280;43523;53.022;-1.178;2022-09-09T05:35:18;99646.59;;;12.79;100.00
57290;BME280;43523;53.022;-1.178;2022-09-09T05:36:21;99647.93;;;12.33;100.00
57290;BME280;43523;53.022;-1.178;2022-09-09T05:37:24;99647.15;;;12.97;100.00